createdAt,value
2023-07-28T00:03:18.521Z,24.95
2023-07-28T00:08:20.228Z,28.88
2023-07-28T00:13:26.684Z,24.92
2023-07-28T00:18:31.018Z,25.35
2023-07-28T00:23:32.853Z,20.65
2023-07-28T00:28:39.214Z,19.08
2023-07-28T00:33:43.399Z,27.15
2023-07-28T00:38:45.169Z,20.95
2023-07-28T00:43:52.031Z,18.95
2023-07-28T00:48:56.053Z,22.20
2023-07-28T00:54:01.165Z,18.13
2023-07-28T00:59:02.927Z,22.33
2023-07-28T01:04:04.905Z,17.98
2023-07-28T01:09:15.004Z,17.52
2023-07-28T01:14:19.057Z,25.77
2023-07-28T01:19:23.500Z,23.63
2023-07-28T01:24:46.203Z,21.67
2023-07-28T01:29:52.607Z,29.90
2023-07-28T01:34:56.903Z,33.38
2023-07-28T01:39:58.721Z,45.35
2023-07-28T01:45:00.599Z,34.35
2023-07-28T01:50:02.668Z,32.92
2023-07-28T01:55:07.639Z,39.53
2023-07-28T02:00:09.784Z,33.83
2023-07-28T02:05:17.459Z,35.97
2023-07-28T02:10:26.966Z,32.90
2023-07-28T02:15:31.042Z,35.53
2023-07-28T02:20:34.683Z,33.47
2023-07-28T02:25:36.671Z,33.05
2023-07-28T02:30:38.579Z,34.40
2023-07-28T02:35:44.463Z,34.58
2023-07-28T02:40:48.294Z,29.42
2023-07-28T02:45:54.880Z,25.63
2023-07-28T02:50:56.719Z,35.00
2023-07-28T02:55:58.524Z,29.70
2023-07-28T03:01:02.555Z,32.63
2023-07-28T03:06:09.998Z,30.45
2023-07-28T03:11:15.947Z,34.30
2023-07-28T03:16:17.807Z,33.97
2023-07-28T03:21:19.591Z,37.78
2023-07-28T03:26:21.347Z,28.63
2023-07-28T03:31:23.330Z,35.83
2023-07-28T03:36:27.606Z,34.05
2023-07-28T03:41:36.312Z,31.55
2023-07-28T03:46:40.397Z,36.42
2023-07-28T03:51:42.128Z,34.38
2023-07-28T03:56:46.500Z,31.13
2023-07-28T04:01:50.530Z,40.17
2023-07-28T04:06:53.825Z,35.92
2023-07-28T04:11:58.029Z,35.00
2023-07-28T04:16:59.976Z,28.50
2023-07-28T04:22:04.044Z,24.08
2023-07-28T04:27:08.327Z,22.35
2023-07-28T04:32:12.743Z,18.35
2023-07-28T04:37:23.198Z,18.17
2023-07-28T04:42:32.264Z,20.10
2023-07-28T04:47:34.080Z,15.48
2023-07-28T04:52:35.857Z,14.50
2023-07-28T04:58:04.710Z,11.00
2023-07-28T05:03:21.029Z,10.55
2023-07-28T05:08:31.934Z,12.90
2023-07-28T05:13:33.880Z,10.18
2023-07-28T05:18:35.717Z,9.63
2023-07-28T05:24:09.797Z,8.48
2023-07-28T05:29:12.371Z,8.38
2023-07-28T05:34:14.535Z,7.68
2023-07-28T05:39:16.370Z,8.70
2023-07-28T05:44:23.856Z,8.40
2023-07-28T05:49:25.811Z,7.50
2023-07-28T05:54:30.158Z,10.13
2023-07-28T05:59:33.994Z,6.55
2023-07-28T06:04:35.755Z,7.13
2023-07-28T06:09:39.995Z,9.60
2023-07-28T06:14:44.588Z,6.20
2023-07-28T06:19:47.455Z,6.00
2023-07-28T06:24:49.696Z,8.32
2023-07-28T06:29:51.412Z,8.18
2023-07-28T06:34:55.781Z,6.93
2023-07-28T06:39:59.738Z,7.60
2023-07-28T06:45:04.751Z,5.68
2023-07-28T06:50:07.082Z,6.43
2023-07-28T06:55:09.564Z,7.82
2023-07-28T07:00:11.988Z,4.55
2023-07-28T07:05:16.420Z,5.38
2023-07-28T07:10:21.773Z,4.95
2023-07-28T07:15:23.589Z,5.95
2023-07-28T07:20:27.766Z,4.80
2023-07-28T07:25:30.105Z,5.57
2023-07-28T07:30:34.692Z,5.10
2023-07-28T07:35:38.921Z,4.28
2023-07-28T07:40:40.693Z,5.15
2023-07-28T07:45:48.179Z,4.55
2023-07-28T07:50:54.520Z,5.18
2023-07-28T07:55:58.767Z,4.07
2023-07-28T08:01:03.209Z,7.10
2023-07-28T08:06:05.225Z,3.60
2023-07-28T08:11:07.334Z,6.53
2023-07-28T08:16:12.236Z,6.00
2023-07-28T08:21:16.256Z,3.25
2023-07-28T08:26:17.942Z,3.17
2023-07-28T08:31:22.044Z,4.10
2023-07-28T08:36:26.110Z,3.17
2023-07-28T08:41:27.986Z,3.08
2023-07-28T08:46:29.972Z,3.17
2023-07-28T08:51:31.825Z,2.80
2023-07-28T08:56:33.588Z,3.72
2023-07-28T09:01:41.073Z,4.05
2023-07-28T09:06:49.805Z,3.33
2023-07-28T09:11:57.729Z,2.80
2023-07-28T09:17:14.669Z,4.05
2023-07-28T09:22:19.387Z,3.03
2023-07-28T09:27:30.209Z,5.43
2023-07-28T09:32:38.155Z,2.55
2023-07-28T09:37:42.717Z,3.53
2023-07-28T09:42:57.405Z,2.58
2023-07-28T09:48:03.437Z,2.55
2023-07-28T09:53:05.541Z,4.07
2023-07-28T09:58:11.327Z,1.95
2023-07-28T10:03:15.813Z,3.90
2023-07-28T10:08:23.632Z,3.35
2023-07-28T10:13:28.237Z,1.42
2023-07-28T10:18:37.863Z,2.15
2023-07-28T10:23:40.125Z,2.30
2023-07-28T10:28:44.785Z,2.00
2023-07-28T10:33:46.778Z,2.55
2023-07-28T10:39:01.260Z,2.03
2023-07-28T10:44:03.446Z,2.28
2023-07-28T10:49:08.917Z,1.85
2023-07-28T10:54:10.683Z,2.42
2023-07-28T10:59:17.540Z,2.85
2023-07-28T11:04:21.371Z,2.67
2023-07-28T11:09:24.841Z,3.13
2023-07-28T11:14:26.867Z,3.75
2023-07-28T11:19:28.908Z,2.20
2023-07-28T11:24:33.424Z,1.67
2023-07-28T11:29:37.511Z,3.35
2023-07-28T11:34:44.706Z,2.65
2023-07-28T11:39:49.414Z,4.72
2023-07-28T11:44:56.019Z,4.57
2023-07-28T11:50:01.477Z,4.15
2023-07-28T11:55:07.534Z,3.75
2023-07-28T12:00:10.168Z,4.85
2023-07-28T12:05:21.637Z,3.17
2023-07-28T12:20:47.829Z,4.15
2023-07-28T12:25:56.746Z,3.53
2023-07-28T12:31:00.264Z,4.50
2023-07-28T12:36:24.429Z,3.13
2023-07-28T12:46:45.011Z,3.10
2023-07-28T12:57:11.586Z,4.32
2023-07-28T13:02:13.684Z,5.55
2023-07-28T13:17:27.458Z,2.55
2023-07-28T13:22:29.300Z,4.95
2023-07-28T13:27:33.636Z,2.63
2023-07-28T13:32:38.102Z,3.55
2023-07-28T13:37:40.712Z,1.85
2023-07-28T13:42:44.825Z,1.92
2023-07-28T13:47:49.580Z,1.60
2023-07-28T13:52:52.536Z,1.90
2023-07-28T13:57:57.902Z,2.67
2023-07-28T14:03:00.641Z,2.63
2023-07-28T14:08:03.259Z,3.17
2023-07-28T14:13:05.908Z,2.30
2023-07-28T14:18:10.597Z,2.47
2023-07-28T14:23:31.704Z,2.33
2023-07-28T14:28:33.607Z,2.58
2023-07-28T14:33:37.712Z,1.73
2023-07-28T14:38:42.176Z,2.50
2023-07-28T14:43:43.936Z,1.67
2023-07-28T14:48:45.628Z,2.28
2023-07-28T14:53:49.759Z,3.92
2023-07-28T14:58:54.396Z,1.73
2023-07-28T15:04:00.328Z,1.67
2023-07-28T15:09:08.477Z,2.70
2023-07-28T15:14:10.484Z,1.35
2023-07-28T15:19:12.293Z,1.92
2023-07-28T15:24:16.637Z,1.90
2023-07-28T15:29:19.921Z,2.45
2023-07-28T15:34:24.452Z,2.70
2023-07-28T15:39:32.315Z,2.88
2023-07-28T15:44:36.465Z,2.47
2023-07-28T15:49:38.895Z,2.83
2023-07-28T15:54:40.759Z,5.90
2023-07-28T15:59:49.092Z,1.33
2023-07-28T16:04:53.450Z,2.22
2023-07-28T16:09:56.504Z,2.08
2023-07-28T16:14:58.295Z,4.93
2023-07-28T16:20:00.158Z,3.20
2023-07-28T16:25:04.232Z,4.78
2023-07-28T16:30:07.471Z,1.60
2023-07-28T16:35:09.246Z,2.60
2023-07-28T16:40:16.102Z,3.35
2023-07-28T16:45:17.845Z,2.75
2023-07-28T16:50:21.981Z,1.83
2023-07-28T16:55:31.442Z,3.40
2023-07-28T17:00:33.221Z,2.15
2023-07-28T17:05:37.281Z,3.78
2023-07-28T17:10:43.778Z,3.13
2023-07-28T17:15:46.775Z,3.55
2023-07-28T17:20:48.633Z,5.47
2023-07-28T17:25:52.483Z,2.90
2023-07-28T17:30:54.545Z,2.60
2023-07-28T17:36:02.244Z,3.45
2023-07-28T17:41:04.128Z,5.18
2023-07-28T17:46:06.126Z,4.25
2023-07-28T17:51:11.282Z,3.55
2023-07-28T17:56:13.153Z,3.40
2023-07-28T18:01:17.395Z,3.17
2023-07-28T18:06:21.518Z,3.15
2023-07-28T18:11:23.257Z,3.45
2023-07-28T18:16:30.061Z,2.58
2023-07-28T18:21:36.814Z,3.78
2023-07-28T18:26:41.244Z,4.50
2023-07-28T18:31:43.134Z,3.33
2023-07-28T18:36:53.508Z,3.95
2023-07-28T18:41:59.822Z,4.30
2023-07-28T18:47:03.916Z,3.30
2023-07-28T18:52:05.912Z,4.80
2023-07-28T18:57:07.894Z,3.67
2023-07-28T19:02:11.853Z,5.07
2023-07-28T19:07:13.710Z,3.20
2023-07-28T19:12:15.480Z,3.65
2023-07-28T19:17:18.129Z,2.83
2023-07-28T19:22:20.068Z,3.60
2023-07-28T19:27:21.774Z,3.03
2023-07-28T19:32:23.681Z,2.90
2023-07-28T19:37:42.993Z,3.42
2023-07-28T19:42:46.227Z,5.93
2023-07-28T19:47:50.737Z,5.20
2023-07-28T19:52:52.440Z,5.03
2023-07-28T19:58:02.504Z,3.97
2023-07-28T20:03:04.533Z,5.25
2023-07-28T20:08:06.415Z,3.88
2023-07-28T20:13:08.213Z,4.47
2023-07-28T20:18:10.707Z,5.78
2023-07-28T20:23:12.524Z,4.57
2023-07-28T20:28:14.363Z,4.47
2023-07-28T20:33:18.447Z,4.88
2023-07-28T20:38:22.527Z,8.02
2023-07-28T20:43:29.152Z,3.78
2023-07-28T20:48:31.368Z,5.40
2023-07-28T20:53:36.263Z,5.63
2023-07-28T20:58:40.670Z,4.63
2023-07-28T21:03:47.512Z,4.95
2023-07-28T21:08:51.782Z,3.97
2023-07-28T21:13:55.865Z,7.47
2023-07-28T21:18:57.630Z,7.78
2023-07-28T21:23:59.644Z,4.05
2023-07-28T21:29:06.239Z,4.25
2023-07-28T21:34:10.837Z,5.95
2023-07-28T21:39:15.826Z,6.88
2023-07-28T21:44:17.611Z,6.22
2023-07-28T21:49:21.346Z,5.07
2023-07-28T21:54:23.821Z,7.40
2023-07-28T21:59:28.055Z,9.18
2023-07-28T22:04:29.843Z,5.28
2023-07-28T22:09:31.611Z,6.40
2023-07-28T22:14:35.760Z,7.95
2023-07-28T22:19:37.506Z,7.82
2023-07-28T22:24:39.260Z,8.25
2023-07-28T22:29:43.382Z,7.70
2023-07-28T22:34:45.169Z,7.95
2023-07-28T22:39:46.907Z,9.57
2023-07-28T22:44:48.692Z,9.43
2023-07-28T22:49:54.948Z,9.00
2023-07-28T22:55:13.912Z,9.20
2023-07-28T23:00:24.191Z,11.93
2023-07-28T23:05:28.461Z,12.05
2023-07-28T23:10:30.390Z,13.98
2023-07-28T23:15:34.460Z,12.52
2023-07-28T23:20:38.656Z,13.95
2023-07-28T23:25:40.490Z,13.70
2023-07-28T23:30:42.264Z,13.88
2023-07-28T23:35:44.074Z,15.23
2023-07-28T23:40:48.833Z,12.85
2023-07-28T23:45:54.541Z,13.48
2023-07-28T23:50:57.317Z,17.90
2023-07-28T23:56:01.385Z,14.18
